Hlavní strana
METAR-TAF:

METAR-TAF

Letiště :

Nuakšott, Mauritánie

zeměpisná šířka: 18-18-36N, zeměpisná délka: 015-58-11W, výška: 3 m

Aktuální stav počasí

Zpráva byla vytvořena před 41 minutami, v 21:00 UTC
Severovýchodní vítr 6 kt
Teplota 24°C
Vlhkost vzduchu 18%
Tlak 1015 hPa
Viditelnost 10 km a více
Žádná oblačnost pod 1500 m, nevyskytují se cumulonimby.

METAR: GQNO 192100Z 05006KT CAVOK 24/M02 Q1015 NOSIG

Čas: 21:41 (21:41 UTC)

Předpověď počasí

Zpráva byla vytvořena před 4 hodinami a 41 minutami, v 17:00 UTC
Předpověď platná od 19 v 18 UTC do 20 v 24 UTC
Severoseverovýchodní vítr 8 kt
Viditelnost: 8000 m

TAF: GQNO 191700Z 1918/2024 02008KT 8000 NSC

Stav a předpovědi počasí z více než 4 000 letišť (zprávy METAR a TAF).

Červené a žluté tečky na mapě představují dostupné meteorologické stanice.

Když kurzor umístíte na tečku, zobrazí se název stanice.

Pak kliknutím zobrazíte stav a předpověď počasí.

Chcete-li změnit mapu, kliknutím na zelené tlačítko se znaménkem +mapu přiblížíte, kliknutím na zelené tlačítko se znaménkem – mapu oddálíte a kliknutím na zelené šipky přejdete na sousední mapy.


METAR-TAF: